createdAt,value
2023-01-22T00:00:01.087Z,0.7
2023-01-22T00:01:00.666Z,0.7
2023-01-22T00:02:01.255Z,0.7
2023-01-22T00:03:00.845Z,0.8
2023-01-22T00:04:01.514Z,0.8
2023-01-22T00:05:01.069Z,0.8
2023-01-22T00:06:00.655Z,0.8
2023-01-22T00:07:01.244Z,0.8
2023-01-22T00:08:00.833Z,0.7
2023-01-22T00:09:01.400Z,0.8
2023-01-22T00:10:00.990Z,0.8
2023-01-22T00:11:01.571Z,0.8
2023-01-22T00:12:01.176Z,0.8
2023-01-22T00:13:00.786Z,0.8
2023-01-22T00:14:01.434Z,0.7
2023-01-22T00:15:00.988Z,0.8
2023-01-22T00:16:01.671Z,0.7
2023-01-22T00:17:01.307Z,0.7
2023-01-22T00:18:00.781Z,0.8
2023-01-22T00:19:01.355Z,0.8
2023-01-22T00:20:00.970Z,0.7
2023-01-22T00:21:01.530Z,0.7
2023-01-22T00:22:01.144Z,0.7
2023-01-22T00:23:00.733Z,0.8
2023-01-22T00:24:01.307Z,0.7
2023-01-22T00:25:00.891Z,0.7
2023-01-22T00:26:01.495Z,0.7
2023-01-22T00:27:01.108Z,0.7
2023-01-22T00:28:00.660Z,0.7
2023-01-22T00:29:01.230Z,0.7
2023-01-22T00:30:00.819Z,0.7
2023-01-22T00:31:01.500Z,0.7
2023-01-22T00:32:01.149Z,0.7
2023-01-22T00:33:00.720Z,0.7
2023-01-22T00:34:01.191Z,0.7
2023-01-22T00:35:00.778Z,0.7
2023-01-22T00:36:01.379Z,0.7
2023-01-22T00:37:00.991Z,0.8
2023-01-22T00:38:01.578Z,0.7
2023-01-22T00:39:01.171Z,0.8
2023-01-22T00:40:00.783Z,0.8
2023-01-22T00:41:01.352Z,0.7
2023-01-22T00:42:00.963Z,0.7
2023-01-22T00:43:01.552Z,0.7
2023-01-22T00:44:01.138Z,0.8
2023-01-22T00:45:00.722Z,0.7
2023-01-22T00:46:01.295Z,0.7
2023-01-22T00:47:00.904Z,0.7
2023-01-22T00:48:01.468Z,0.7
2023-01-22T00:49:01.065Z,0.7
2023-01-22T00:50:00.643Z,0.7
2023-01-22T00:51:01.272Z,0.7
2023-01-22T00:52:00.935Z,0.7
2023-01-22T00:53:01.452Z,0.7
2023-01-22T00:54:01.039Z,0.7
2023-01-22T00:55:00.639Z,0.7
2023-01-22T00:56:01.208Z,0.7
2023-01-22T00:57:00.820Z,0.7
2023-01-22T00:58:01.385Z,0.7
2023-01-22T00:59:01.012Z,0.7
2023-01-22T01:00:01.557Z,0.7
2023-01-22T01:01:01.183Z,0.7
2023-01-22T01:02:00.912Z,0.7
2023-01-22T01:03:01.366Z,0.7
2023-01-22T01:04:00.980Z,0.7
2023-01-22T01:05:01.552Z,0.6
2023-01-22T01:06:01.135Z,0.6
2023-01-22T01:07:00.722Z,0.6
2023-01-22T01:08:01.297Z,0.7
2023-01-22T01:09:00.917Z,0.7
2023-01-22T01:10:01.483Z,0.6
2023-01-22T01:11:01.074Z,0.7
2023-01-22T01:12:00.661Z,0.6
2023-01-22T01:13:01.356Z,0.7
2023-01-22T01:14:00.920Z,0.7
2023-01-22T01:15:01.467Z,0.7
2023-01-22T01:16:01.088Z,0.7
2023-01-22T01:17:00.645Z,0.7
2023-01-22T01:18:01.228Z,0.7
2023-01-22T01:19:00.833Z,0.7
2023-01-22T01:20:01.475Z,0.7
2023-01-22T01:21:01.073Z,0.7
2023-01-22T01:22:00.625Z,0.7
2023-01-22T01:23:01.198Z,0.7
2023-01-22T01:24:00.812Z,0.7
2023-01-22T01:25:01.407Z,0.7
2023-01-22T01:26:01.005Z,0.7
2023-01-22T01:27:01.580Z,0.6
2023-01-22T01:28:01.192Z,0.7
2023-01-22T01:29:00.922Z,0.6
2023-01-22T01:30:01.363Z,0.6
2023-01-22T01:31:01.129Z,0.6
2023-01-22T01:32:01.685Z,0.6
2023-01-22T01:33:01.311Z,0.6
2023-01-22T01:34:00.939Z,0.6
2023-01-22T01:35:01.405Z,0.6
2023-01-22T01:36:01.011Z,0.6
2023-01-22T01:37:01.586Z,0.6
2023-01-22T01:38:01.169Z,0.6
2023-01-22T01:39:00.754Z,0.6
2023-01-22T01:40:01.359Z,0.5
2023-01-22T01:41:00.985Z,0.6
2023-01-22T01:42:01.566Z,0.6
2023-01-22T01:43:01.156Z,0.6
2023-01-22T01:44:00.743Z,0.5
2023-01-22T01:45:01.436Z,0.6
2023-01-22T01:46:00.981Z,0.6
2023-01-22T01:47:01.538Z,0.6
2023-01-22T01:48:01.123Z,0.6
2023-01-22T01:49:00.710Z,0.6
2023-01-22T01:50:01.299Z,0.6
2023-01-22T01:51:00.925Z,0.6
2023-01-22T01:52:01.465Z,0.6
2023-01-22T01:53:01.078Z,0.6
2023-01-22T01:54:00.637Z,0.7
2023-01-22T01:55:01.229Z,0.6
2023-01-22T01:56:00.835Z,0.5
2023-01-22T01:57:01.428Z,0.6
2023-01-22T01:58:01.022Z,0.6
2023-01-22T01:59:00.613Z,0.6
2023-01-22T02:00:01.170Z,0.6
2023-01-22T02:01:00.922Z,0.6
2023-01-22T02:02:01.369Z,0.6
2023-01-22T02:03:00.987Z,0.6
2023-01-22T02:04:01.562Z,0.6
2023-01-22T02:05:01.152Z,0.6
2023-01-22T02:06:00.744Z,0.6
2023-01-22T02:07:01.342Z,0.7
2023-01-22T02:08:00.928Z,0.7
2023-01-22T02:09:01.511Z,0.6
2023-01-22T02:10:01.131Z,0.6
2023-01-22T02:11:00.717Z,0.6
2023-01-22T02:12:01.333Z,0.6
2023-01-22T02:13:00.920Z,0.6
2023-01-22T02:14:01.496Z,0.6
2023-01-22T02:15:01.107Z,0.6
2023-01-22T02:16:00.759Z,0.6
2023-01-22T02:17:01.406Z,0.7
2023-01-22T02:18:00.944Z,0.7
2023-01-22T02:19:01.498Z,0.6
2023-01-22T02:20:01.105Z,0.6
2023-01-22T02:21:00.671Z,0.6
2023-01-22T02:22:01.272Z,0.6
2023-01-22T02:23:00.883Z,0.6
2023-01-22T02:24:01.466Z,0.6
2023-01-22T02:25:01.082Z,0.6
2023-01-22T02:26:00.655Z,0.6
2023-01-22T02:27:01.236Z,0.6
2023-01-22T02:28:00.827Z,0.6
2023-01-22T02:29:01.427Z,0.6
2023-01-22T02:30:01.021Z,0.6
2023-01-22T02:31:00.661Z,0.6
2023-01-22T02:32:01.189Z,0.6
2023-01-22T02:33:00.893Z,0.6
2023-01-22T02:34:01.486Z,0.6
2023-01-22T02:35:01.024Z,0.6
2023-01-22T02:36:00.591Z,0.6
2023-01-22T02:37:01.194Z,0.6
2023-01-22T02:38:00.802Z,0.7
2023-01-22T02:39:01.405Z,0.6
2023-01-22T02:40:00.990Z,0.6
2023-01-22T02:41:01.567Z,0.6
2023-01-22T02:42:01.153Z,0.6
2023-01-22T02:43:00.746Z,0.6
2023-01-22T02:44:01.370Z,0.6
2023-01-22T02:45:00.960Z,0.6
2023-01-22T02:46:01.600Z,0.6
2023-01-22T02:47:01.224Z,0.7
2023-01-22T02:48:00.771Z,0.6
2023-01-22T02:49:01.494Z,0.6
2023-01-22T02:50:00.988Z,0.6
2023-01-22T02:51:01.631Z,0.7
2023-01-22T02:52:01.244Z,0.6
2023-01-22T02:53:00.813Z,0.6
2023-01-22T02:54:01.421Z,0.5
2023-01-22T02:55:01.025Z,0.6
2023-01-22T02:56:00.598Z,0.6
2023-01-22T02:57:01.172Z,0.6
2023-01-22T02:58:00.761Z,0.6
2023-01-22T02:59:01.363Z,0.6
2023-01-22T03:00:00.957Z,0.6
2023-01-22T03:01:01.565Z,0.6
2023-01-22T03:02:01.174Z,0.6
2023-01-22T03:03:00.766Z,0.6
2023-01-22T03:04:01.376Z,0.5
2023-01-22T03:05:01.083Z,0.6
2023-01-22T03:06:01.539Z,0.6
2023-01-22T03:07:01.136Z,0.6
2023-01-22T03:08:00.731Z,0.6
2023-01-22T03:09:01.320Z,0.5
2023-01-22T03:10:00.915Z,0.6
2023-01-22T03:11:01.496Z,0.6
2023-01-22T03:12:01.087Z,0.6
2023-01-22T03:13:00.660Z,0.5
2023-01-22T03:14:01.288Z,0.5
2023-01-22T03:15:00.874Z,0.5
2023-01-22T03:16:01.449Z,0.4
2023-01-22T03:17:01.059Z,0.5
2023-01-22T03:18:00.609Z,0.4
2023-01-22T03:19:01.206Z,0.4
2023-01-22T03:20:00.795Z,0.4
2023-01-22T03:21:01.487Z,0.4
2023-01-22T03:22:01.018Z,0.3
2023-01-22T03:23:00.615Z,0.3
2023-01-22T03:24:01.217Z,0.3
2023-01-22T03:25:00.810Z,0.3
2023-01-22T03:26:01.394Z,0.3
2023-01-22T03:27:00.982Z,0.3
2023-01-22T03:28:01.553Z,0.2
2023-01-22T03:29:01.157Z,0.2
2023-01-22T03:30:00.757Z,0.2
2023-01-22T03:31:01.375Z,0.2
2023-01-22T03:32:01.018Z,0.2
2023-01-22T03:33:01.550Z,0.2
2023-01-22T03:34:01.142Z,0.1
2023-01-22T03:35:00.854Z,0.1
2023-01-22T03:36:01.345Z,0.1
2023-01-22T03:37:01.079Z,0.1
2023-01-22T03:38:01.533Z,0.1
2023-01-22T03:39:01.126Z,0.1
2023-01-22T03:40:00.767Z,0.1
2023-01-22T03:41:01.306Z,0.1
2023-01-22T03:42:00.909Z,0.1
2023-01-22T03:43:01.492Z,0
2023-01-22T03:44:01.078Z,0.1
2023-01-22T03:45:00.692Z,0.1
2023-01-22T03:46:01.304Z,0
2023-01-22T03:47:00.884Z,0.1
2023-01-22T03:48:01.466Z,0.1
2023-01-22T03:49:01.058Z,0
2023-01-22T03:50:00.658Z,0
2023-01-22T03:51:01.253Z,0.1
2023-01-22T03:52:00.859Z,0.1
2023-01-22T03:53:01.566Z,0.1
2023-01-22T03:54:01.109Z,0
2023-01-22T03:55:00.710Z,0
2023-01-22T03:56:01.280Z,0
2023-01-22T03:57:00.870Z,0.1
2023-01-22T03:58:01.445Z,0
2023-01-22T03:59:01.061Z,0.1
2023-01-22T04:00:00.642Z,0
2023-01-22T04:01:01.230Z,0
2023-01-22T04:02:00.891Z,0
2023-01-22T04:03:01.420Z,0
2023-01-22T04:04:01.014Z,0.1
2023-01-22T04:05:00.625Z,0.1
2023-01-22T04:06:01.187Z,0.1
2023-01-22T04:07:00.822Z,0.1
2023-01-22T04:08:01.395Z,0.1
2023-01-22T04:09:01.105Z,0.1
2023-01-22T04:10:01.580Z,0
2023-01-22T04:11:01.171Z,0
2023-01-22T04:12:00.757Z,0
2023-01-22T04:13:01.333Z,0
2023-01-22T04:14:00.921Z,0
2023-01-22T04:15:01.556Z,0
2023-01-22T04:16:01.143Z,0
2023-01-22T04:17:00.712Z,0
2023-01-22T04:18:01.287Z,0
2023-01-22T04:19:00.893Z,0
2023-01-22T04:20:01.466Z,0
2023-01-22T04:21:01.066Z,0
2023-01-22T04:22:00.631Z,0.1
2023-01-22T04:23:01.212Z,0.1
2023-01-22T04:24:00.801Z,0.1
2023-01-22T04:25:01.561Z,0.1
2023-01-22T04:26:01.020Z,0.1
2023-01-22T04:27:00.594Z,0.1
2023-01-22T04:28:01.173Z,0.1
2023-01-22T04:29:00.810Z,0
2023-01-22T04:30:01.350Z,0
2023-01-22T04:31:01.017Z,0
2023-01-22T04:32:01.547Z,0
2023-01-22T04:33:01.158Z,0
2023-01-22T04:34:00.762Z,0
2023-01-22T04:35:01.429Z,0
2023-01-22T04:36:00.975Z,0
2023-01-22T04:37:01.571Z,0
2023-01-22T04:38:01.161Z,0
2023-01-22T04:39:00.758Z,0
2023-01-22T04:40:01.328Z,0
2023-01-22T04:41:01.057Z,0
2023-01-22T04:42:01.561Z,0
2023-01-22T04:43:01.158Z,0.1
2023-01-22T04:44:00.735Z,0.1
2023-01-22T04:45:01.319Z,0.1
2023-01-22T04:46:00.952Z,0.1
2023-01-22T04:47:01.537Z,0.1
2023-01-22T04:48:01.123Z,0.1
2023-01-22T04:49:00.715Z,0.1
2023-01-22T04:50:01.269Z,0.1
2023-01-22T04:51:00.943Z,0.1
2023-01-22T04:52:01.440Z,0.1
2023-01-22T04:53:01.065Z,0
2023-01-22T04:54:00.628Z,0
2023-01-22T04:55:01.187Z,0
2023-01-22T04:56:00.791Z,0
2023-01-22T04:57:01.476Z,0.1
2023-01-22T04:58:01.003Z,0
2023-01-22T04:59:01.584Z,0
2023-01-22T05:00:01.178Z,0
2023-01-22T05:01:00.826Z,0
2023-01-22T05:02:01.341Z,0
2023-01-22T05:03:00.928Z,0
2023-01-22T05:04:01.517Z,0.1
2023-01-22T05:05:01.172Z,0
2023-01-22T05:06:00.719Z,0
2023-01-22T05:07:01.302Z,0.1
2023-01-22T05:08:00.890Z,0.1
2023-01-22T05:09:01.472Z,0.1
2023-01-22T05:10:01.086Z,0
2023-01-22T05:11:00.656Z,0.1
2023-01-22T05:12:01.236Z,0.1
2023-01-22T05:13:01.038Z,0.1
2023-01-22T05:14:01.401Z,0.1
2023-01-22T05:15:00.986Z,0.1
2023-01-22T05:16:01.639Z,0.1
2023-01-22T05:17:01.309Z,0.1
2023-01-22T05:18:00.778Z,0.1
2023-01-22T05:19:01.355Z,0.1
2023-01-22T05:20:00.938Z,0.1
2023-01-22T05:21:01.556Z,0.1
2023-01-22T05:22:01.159Z,0.1
2023-01-22T05:23:00.748Z,0.1
2023-01-22T05:24:01.335Z,0.1
2023-01-22T05:25:00.935Z,0.1
2023-01-22T05:26:01.549Z,0.1
2023-01-22T05:27:01.136Z,0.1
2023-01-22T05:28:00.715Z,0.1
2023-01-22T05:29:01.423Z,0.1
2023-01-22T05:30:00.960Z,0.1
2023-01-22T05:31:01.720Z,0.1
2023-01-22T05:32:01.365Z,0.1
2023-01-22T05:33:00.789Z,0.1
2023-01-22T05:34:01.372Z,0.1
2023-01-22T05:35:00.973Z,0.1
2023-01-22T05:36:00.675Z,0.1
2023-01-22T05:37:01.148Z,0.1
2023-01-22T05:38:00.734Z,0.1
2023-01-22T05:39:01.326Z,0.2
2023-01-22T05:40:00.921Z,0.1
2023-01-22T05:41:01.496Z,0.1
2023-01-22T05:42:01.148Z,0.1
2023-01-22T05:43:00.700Z,0.1
2023-01-22T05:44:01.279Z,0.1
2023-01-22T05:45:00.994Z,0.1
2023-01-22T05:46:01.524Z,0.1
2023-01-22T05:47:01.139Z,0.1
2023-01-22T05:48:00.724Z,0.1
2023-01-22T05:49:01.277Z,0.1
2023-01-22T05:50:00.868Z,0.1
2023-01-22T05:51:01.496Z,0.1
2023-01-22T05:52:01.106Z,0.1
2023-01-22T05:53:00.671Z,0.1
2023-01-22T05:54:01.247Z,0.1
2023-01-22T05:55:00.836Z,0
2023-01-22T05:56:01.412Z,0
2023-01-22T05:57:01.018Z,0
2023-01-22T05:58:00.587Z,0.1
2023-01-22T05:59:01.157Z,0.1
2023-01-22T06:00:00.789Z,0.1
2023-01-22T06:01:01.517Z,0.1
2023-01-22T06:02:01.067Z,0.1
2023-01-22T06:03:00.581Z,0
2023-01-22T06:04:01.166Z,0.1
2023-01-22T06:05:00.790Z,0.1
2023-01-22T06:06:01.357Z,0
2023-01-22T06:07:00.979Z,0
2023-01-22T06:08:01.540Z,0.1
2023-01-22T06:09:01.133Z,0.1
2023-01-22T06:10:00.722Z,0.1
2023-01-22T06:11:01.301Z,0.1
2023-01-22T06:12:00.912Z,0.1
2023-01-22T06:13:01.475Z,0.1
2023-01-22T06:14:01.066Z,0.1
2023-01-22T06:15:00.643Z,0.1
2023-01-22T06:16:01.264Z,0.1
2023-01-22T06:17:01.023Z,0.1
2023-01-22T06:18:01.443Z,0.1
2023-01-22T06:19:01.045Z,0.1
2023-01-22T06:20:00.614Z,0.1
2023-01-22T06:21:01.188Z,0.1
2023-01-22T06:22:00.800Z,0.1
2023-01-22T06:23:01.360Z,0.2
2023-01-22T06:24:00.948Z,0.2
2023-01-22T06:25:01.546Z,0.1
2023-01-22T06:26:01.131Z,0.1
2023-01-22T06:27:00.741Z,0.1
2023-01-22T06:28:01.292Z,0.1
2023-01-22T06:29:00.913Z,0.1
2023-01-22T06:30:01.456Z,0.2
2023-01-22T06:31:01.128Z,0.1
2023-01-22T06:32:00.628Z,0.1
2023-01-22T06:33:01.333Z,0.1
2023-01-22T06:34:00.871Z,0.1
2023-01-22T06:35:01.432Z,0.2
2023-01-22T06:36:01.031Z,0.2
2023-01-22T06:37:00.685Z,0.2
2023-01-22T06:38:01.175Z,0.2
2023-01-22T06:39:00.784Z,0.2
2023-01-22T06:40:01.344Z,0.1
2023-01-22T06:41:00.951Z,0.2
2023-01-22T06:42:01.539Z,0.2
2023-01-22T06:43:01.132Z,0.2
2023-01-22T06:44:00.744Z,0.2
2023-01-22T06:45:01.295Z,0.1
2023-01-22T06:46:00.882Z,0.1
2023-01-22T06:47:01.466Z,0.1
2023-01-22T06:48:01.054Z,0.1
2023-01-22T06:49:00.774Z,0.1
2023-01-22T06:50:01.201Z,0.1
2023-01-22T06:51:00.838Z,0.2
2023-01-22T06:52:01.360Z,0.2
2023-01-22T06:53:00.960Z,0.1
2023-01-22T06:54:01.547Z,0.1
2023-01-22T06:55:01.165Z,0.1
2023-01-22T06:56:00.749Z,0.1
2023-01-22T06:57:01.326Z,0.1
2023-01-22T06:58:00.927Z,0.1
2023-01-22T06:59:01.535Z,0.1
2023-01-22T07:00:01.130Z,0.1
2023-01-22T07:01:00.717Z,0.1
2023-01-22T07:02:01.329Z,0.1
2023-01-22T07:03:00.941Z,0.1
2023-01-22T07:04:01.661Z,0.1
2023-01-22T07:05:01.406Z,0.1
2023-01-22T07:06:00.738Z,0.1
2023-01-22T07:07:01.315Z,0
2023-01-22T07:08:00.918Z,0.1
2023-01-22T07:09:01.554Z,0.1
2023-01-22T07:10:01.166Z,0.1
2023-01-22T07:11:00.722Z,0.1
2023-01-22T07:12:01.309Z,0.2
2023-01-22T07:13:00.897Z,0.2
2023-01-22T07:14:01.488Z,0.2
2023-01-22T07:15:01.096Z,0.1
2023-01-22T07:16:00.690Z,0.2
2023-01-22T07:17:01.247Z,0.1
2023-01-22T07:18:00.840Z,0.1
2023-01-22T07:19:01.414Z,0.1
2023-01-22T07:20:01.026Z,0.2
2023-01-22T07:21:00.694Z,0.1
2023-01-22T07:22:01.160Z,0.2
2023-01-22T07:23:00.751Z,0.2
2023-01-22T07:24:01.317Z,0.2
2023-01-22T07:25:00.926Z,0.1
2023-01-22T07:26:00.747Z,0.1
2023-01-22T07:27:01.352Z,0.2
2023-01-22T07:28:00.708Z,0.2
2023-01-22T07:29:01.293Z,0.2
2023-01-22T07:30:00.904Z,0.2
2023-01-22T07:31:01.527Z,0.1
2023-01-22T07:32:01.116Z,0.2
2023-01-22T07:33:00.674Z,0.1
2023-01-22T07:34:01.258Z,0.1
2023-01-22T07:35:00.864Z,0.2
2023-01-22T07:36:01.436Z,0.2
2023-01-22T07:37:01.241Z,0.2
2023-01-22T07:38:00.617Z,0.2
2023-01-22T07:39:01.177Z,0.1
2023-01-22T07:40:00.762Z,0.2
2023-01-22T07:41:01.354Z,0.2
2023-01-22T07:42:00.942Z,0.2
2023-01-22T07:43:01.561Z,0.2
2023-01-22T07:44:01.164Z,0.2
2023-01-22T07:45:00.751Z,0.2
2023-01-22T07:46:01.366Z,0.2
2023-01-22T07:47:00.957Z,0.2
2023-01-22T07:48:01.529Z,0.2
2023-01-22T07:49:01.143Z,0.2
2023-01-22T07:50:00.736Z,0.3
2023-01-22T07:51:01.365Z,0.2
2023-01-22T07:52:00.976Z,0.2
2023-01-22T07:53:01.646Z,0.2
2023-01-22T07:54:01.246Z,0.3
2023-01-22T07:55:00.764Z,0.3
2023-01-22T07:56:01.342Z,0.3
2023-01-22T07:57:00.950Z,0.3
2023-01-22T07:58:01.533Z,0.3
2023-01-22T07:59:01.157Z,0.3
2023-01-22T08:00:00.742Z,0.3
2023-01-22T08:01:01.476Z,0.3
2023-01-22T08:02:03.316Z,0.3
2023-01-22T08:03:01.550Z,0.3
2023-01-22T08:04:01.134Z,0.3
2023-01-22T08:05:00.722Z,0.3
2023-01-22T08:06:01.323Z,0.3
2023-01-22T08:07:00.938Z,0.3
2023-01-22T08:08:01.504Z,0.4
2023-01-22T08:09:01.239Z,0.4
2023-01-22T08:10:00.745Z,0.4
2023-01-22T08:11:01.308Z,0.4
2023-01-22T08:12:00.901Z,0.3
2023-01-22T08:13:01.506Z,0.3
2023-01-22T08:14:01.125Z,0.3
2023-01-22T08:15:00.705Z,0.3
2023-01-22T08:16:01.364Z,0.3
2023-01-22T08:17:00.926Z,0.3
2023-01-22T08:18:01.549Z,0.3
2023-01-22T08:19:01.145Z,0.4
2023-01-22T08:20:00.730Z,0.4
2023-01-22T08:21:01.328Z,0.4
2023-01-22T08:22:00.921Z,0.4
2023-01-22T08:23:01.508Z,0.4
2023-01-22T08:24:01.098Z,0.4
2023-01-22T08:25:00.811Z,0.5
2023-01-22T08:26:01.311Z,0.5
2023-01-22T08:27:00.899Z,0.5
2023-01-22T08:28:01.531Z,0.5
2023-01-22T08:29:04.327Z,0.5
2023-01-22T08:30:00.662Z,0.5
2023-01-22T08:31:01.317Z,0.5
2023-01-22T08:32:01.044Z,0.4
2023-01-22T08:33:01.492Z,0.4
2023-01-22T08:34:01.082Z,0.4
2023-01-22T08:35:00.672Z,0.4
2023-01-22T08:36:01.254Z,0.4
2023-01-22T08:37:00.864Z,0.5
2023-01-22T08:38:01.546Z,0.4
2023-01-22T08:39:01.086Z,0.4
2023-01-22T08:40:00.657Z,0.5
2023-01-22T08:41:01.344Z,0.5
2023-01-22T08:42:00.878Z,0.5
2023-01-22T08:43:01.464Z,0.6
2023-01-22T08:44:01.074Z,0.7
2023-01-22T08:45:00.641Z,0.7
2023-01-22T08:46:01.253Z,0.7
2023-01-22T08:47:00.854Z,0.7
2023-01-22T08:48:01.428Z,0.6
2023-01-22T08:49:01.037Z,0.6
2023-01-22T08:50:00.597Z,0.6
2023-01-22T08:51:01.209Z,0.7
2023-01-22T08:52:00.826Z,0.7
2023-01-22T08:53:01.411Z,0.8
2023-01-22T08:54:01.003Z,0.8
2023-01-22T08:55:00.603Z,0.8
2023-01-22T08:56:01.178Z,0.7
2023-01-22T08:57:00.888Z,0.8
2023-01-22T08:58:01.346Z,0.8
2023-01-22T08:59:00.964Z,0.8
2023-01-22T09:00:01.885Z,0.7
2023-01-22T09:01:01.683Z,0.8
2023-01-22T09:02:01.397Z,0.7
2023-01-22T09:03:01.016Z,0.8
2023-01-22T09:04:00.620Z,0.8
2023-01-22T09:05:01.182Z,0.9
2023-01-22T09:06:00.791Z,0.9
2023-01-22T09:07:01.352Z,0.8
2023-01-22T09:08:00.939Z,0.8
2023-01-22T09:09:01.546Z,0.8
2023-01-22T09:10:01.141Z,0.8
2023-01-22T09:11:00.729Z,0.9
2023-01-22T09:12:01.319Z,0.9
2023-01-22T09:13:01.029Z,1
2023-01-22T09:14:01.551Z,1.1
2023-01-22T09:15:01.162Z,1.1
2023-01-22T09:16:00.734Z,1.1
2023-01-22T09:17:01.318Z,1
2023-01-22T09:18:00.906Z,1.1
2023-01-22T09:19:01.541Z,1.1
2023-01-22T09:20:01.143Z,1.1
2023-01-22T09:21:00.733Z,1.1
2023-01-22T09:22:01.300Z,1.2
2023-01-22T09:23:00.885Z,1.1
2023-01-22T09:24:01.519Z,1.2
2023-01-22T09:25:01.109Z,1.2
2023-01-22T09:26:00.693Z,1.2
2023-01-22T09:27:01.270Z,1.2
2023-01-22T09:28:00.889Z,1.3
2023-01-22T09:29:01.594Z,1.2
2023-01-22T09:30:01.106Z,1.2
2023-01-22T09:31:00.725Z,1.2
2023-01-22T09:32:01.342Z,1.2
2023-01-22T09:33:00.908Z,1.3
2023-01-22T09:34:01.537Z,1.3
2023-01-22T09:35:01.149Z,1.4
2023-01-22T09:36:00.740Z,1.5
2023-01-22T09:37:01.314Z,1.4
2023-01-22T09:38:01.001Z,1.3
2023-01-22T09:39:01.477Z,1.2
2023-01-22T09:40:01.081Z,1.2
2023-01-22T09:41:00.671Z,1.2
2023-01-22T09:42:01.260Z,1.2
2023-01-22T09:43:00.845Z,1.2
2023-01-22T09:44:01.437Z,1.2
2023-01-22T09:45:01.178Z,1.1
2023-01-22T09:46:00.758Z,1.2
2023-01-22T09:47:01.203Z,1.2
2023-01-22T09:48:00.795Z,1.2
2023-01-22T09:49:01.370Z,1.3
2023-01-22T09:50:00.987Z,1.2
2023-01-22T09:51:01.605Z,1.3
2023-01-22T09:52:02.295Z,1.2
2023-01-22T09:53:00.769Z,1.2
2023-01-22T09:54:01.357Z,1.3
2023-01-22T09:55:00.946Z,1.2
2023-01-22T09:56:01.546Z,1.2
2023-01-22T09:57:01.156Z,1.1
2023-01-22T09:58:00.742Z,1.1
2023-01-22T09:59:01.349Z,1.1
2023-01-22T10:00:00.945Z,1.1
2023-01-22T10:01:01.688Z,1.1
2023-01-22T10:02:01.377Z,1.3
2023-01-22T10:03:00.731Z,1.3
2023-01-22T10:04:01.319Z,1.3
2023-01-22T10:05:00.910Z,1.2
2023-01-22T10:06:01.533Z,1.2
2023-01-22T10:07:01.147Z,1.1
2023-01-22T10:08:00.744Z,1.2
2023-01-22T10:09:01.320Z,1.3
2023-01-22T10:10:00.906Z,1.3
2023-01-22T10:11:01.508Z,1.3
2023-01-22T10:12:01.100Z,1.3
2023-01-22T10:13:00.685Z,1.3
2023-01-22T10:14:01.281Z,1.5
2023-01-22T10:15:00.866Z,1.4
2023-01-22T10:16:01.452Z,1.4
2023-01-22T10:17:01.179Z,1.3
2023-01-22T10:18:00.642Z,1.3
2023-01-22T10:19:01.243Z,1.3
2023-01-22T10:20:00.833Z,1.3
2023-01-22T10:21:01.418Z,1.4
2023-01-22T10:22:01.011Z,1.5
2023-01-22T10:23:00.588Z,1.3
2023-01-22T10:24:01.192Z,1.3
2023-01-22T10:25:00.782Z,1.3
2023-01-22T10:26:01.384Z,1.4
2023-01-22T10:27:00.967Z,1.4
2023-01-22T10:28:00.551Z,1.5
2023-01-22T10:29:01.146Z,1.6
2023-01-22T10:30:00.748Z,1.6
2023-01-22T10:31:01.467Z,1.5
2023-01-22T10:32:01.038Z,1.5
2023-01-22T10:33:00.691Z,1.4
2023-01-22T10:34:01.194Z,1.4
2023-01-22T10:35:00.809Z,1.4
2023-01-22T10:36:01.383Z,1.3
2023-01-22T10:37:00.971Z,1.4
2023-01-22T10:38:00.561Z,1.5
2023-01-22T10:39:01.244Z,1.5
2023-01-22T10:40:00.828Z,1.4
2023-01-22T10:41:01.383Z,1.4
2023-01-22T10:42:00.969Z,1.4
2023-01-22T10:43:01.553Z,1.5
2023-01-22T10:44:01.155Z,1.5
2023-01-22T10:45:00.763Z,1.5
2023-01-22T10:46:01.399Z,1.6
2023-01-22T10:47:01.019Z,1.6
2023-01-22T10:48:00.567Z,1.4
2023-01-22T10:49:01.271Z,1.4
2023-01-22T10:50:02.312Z,1.4
2023-01-22T10:51:01.363Z,1.5
2023-01-22T10:52:00.994Z,1.5
2023-01-22T10:53:00.615Z,1.6
2023-01-22T10:54:01.141Z,1.5
2023-01-22T10:55:00.734Z,1.6
2023-01-22T10:56:01.341Z,1.7
2023-01-22T10:57:00.981Z,1.7
2023-01-22T10:58:00.567Z,1.7
2023-01-22T10:59:01.137Z,1.6
2023-01-22T11:00:00.726Z,1.6
2023-01-22T11:01:01.339Z,1.7
2023-01-22T11:02:00.960Z,1.4
2023-01-22T11:03:01.546Z,1.4
2023-01-22T11:04:01.154Z,1.4
2023-01-22T11:05:00.873Z,1.3
2023-01-22T11:06:01.348Z,1.3
2023-01-22T11:07:00.965Z,1.4
2023-01-22T11:08:01.548Z,1.5
2023-01-22T11:09:01.136Z,1.4
2023-01-22T11:10:00.723Z,1.3
2023-01-22T11:11:01.307Z,1.4
2023-01-22T11:12:00.921Z,1.4
2023-01-22T11:13:01.508Z,1.3
2023-01-22T11:14:01.185Z,1.4
2023-01-22T11:15:00.730Z,1.4
2023-01-22T11:16:01.387Z,1.4
2023-01-22T11:17:00.977Z,1.5
2023-01-22T11:18:00.577Z,1.5
2023-01-22T11:19:01.159Z,1.6
2023-01-22T11:20:00.755Z,1.5
2023-01-22T11:21:01.454Z,1.4
2023-01-22T11:22:00.973Z,1.5
2023-01-22T11:23:00.591Z,1.5
2023-01-22T11:24:01.145Z,1.5
2023-01-22T11:25:00.743Z,1.4
2023-01-22T11:26:01.307Z,1.4
2023-01-22T11:27:00.902Z,1.5
2023-01-22T11:28:01.514Z,1.6
2023-01-22T11:29:01.109Z,1.7
2023-01-22T11:30:00.716Z,1.7
2023-01-22T11:31:01.348Z,1.6
2023-01-22T11:32:00.947Z,1.5
2023-01-22T11:33:01.577Z,1.4
2023-01-22T11:34:01.178Z,1.5
2023-01-22T11:35:00.775Z,1.6
2023-01-22T11:36:01.365Z,1.6
2023-01-22T11:37:01.085Z,1.5
2023-01-22T11:38:01.586Z,1.4
2023-01-22T11:39:01.175Z,1.5
2023-01-22T11:40:00.889Z,1.4
2023-01-22T11:41:01.338Z,1.3
2023-01-22T11:42:00.929Z,1.3
2023-01-22T11:43:01.554Z,1.4
2023-01-22T11:44:01.149Z,1.3
2023-01-22T11:45:00.760Z,1.3
2023-01-22T11:46:01.362Z,1.3
2023-01-22T11:47:00.972Z,1.3
2023-01-22T11:48:00.565Z,1.4
2023-01-22T11:49:01.138Z,1.5
2023-01-22T11:50:00.746Z,1.3
2023-01-22T11:51:01.324Z,1.5
2023-01-22T11:52:00.926Z,1.5
2023-01-22T11:53:01.622Z,1.6
2023-01-22T11:54:01.213Z,1.6
2023-01-22T11:55:00.762Z,1.6
2023-01-22T11:56:01.329Z,1.6
2023-01-22T11:57:00.917Z,1.5
2023-01-22T11:58:01.522Z,1.4
2023-01-22T11:59:01.139Z,1.5
2023-01-22T12:00:00.751Z,1.5
2023-01-22T12:01:01.316Z,1.6
2023-01-22T12:02:00.901Z,1.5
2023-01-22T12:03:01.532Z,1.5
2023-01-22T12:04:01.242Z,1.5
2023-01-22T12:05:00.720Z,1.5
2023-01-22T12:06:01.307Z,1.5
2023-01-22T12:07:00.901Z,1.6
2023-01-22T12:08:01.484Z,1.5
2023-01-22T12:09:01.200Z,1.6
2023-01-22T12:10:00.744Z,1.5
2023-01-22T12:11:01.308Z,1.6
2023-01-22T12:12:00.949Z,1.6
2023-01-22T12:13:01.526Z,1.7
2023-01-22T12:14:01.111Z,1.7
2023-01-22T12:15:00.709Z,1.8
2023-01-22T12:16:01.537Z,1.8
2023-01-22T12:17:01.541Z,1.8
2023-01-22T12:18:01.130Z,1.8
2023-01-22T12:19:00.723Z,1.8
2023-01-22T12:20:01.334Z,1.8
2023-01-22T12:21:00.960Z,1.8
2023-01-22T12:22:01.507Z,1.7
2023-01-22T12:23:01.122Z,1.8
2023-01-22T12:24:00.730Z,1.7
2023-01-22T12:25:01.422Z,1.6
2023-01-22T12:26:00.948Z,1.7
2023-01-22T12:27:01.552Z,1.7
2023-01-22T12:28:01.141Z,1.7
2023-01-22T12:29:00.750Z,1.6
2023-01-22T12:30:01.340Z,1.7
2023-01-22T12:31:01.019Z,1.7
2023-01-22T12:32:01.557Z,1.8
2023-01-22T12:33:02.706Z,1.8
2023-01-22T12:34:00.694Z,1.8
2023-01-22T12:35:01.304Z,1.7
2023-01-22T12:36:00.894Z,1.7
2023-01-22T12:37:01.679Z,1.7
2023-01-22T12:38:01.288Z,1.6
2023-01-22T12:39:00.729Z,1.7
2023-01-22T12:40:01.360Z,1.7
2023-01-22T12:41:01.075Z,1.8
2023-01-22T12:42:01.530Z,1.8
2023-01-22T12:43:01.116Z,1.7
2023-01-22T12:44:00.704Z,1.6
2023-01-22T12:45:01.286Z,1.7
2023-01-22T12:46:00.892Z,1.6
2023-01-22T12:47:01.463Z,1.7
2023-01-22T12:48:01.054Z,1.8
2023-01-22T12:49:00.647Z,1.8
2023-01-22T12:50:02.434Z,1.8
2023-01-22T12:51:00.836Z,1.8
2023-01-22T12:52:01.433Z,1.7
2023-01-22T12:53:01.047Z,1.7
2023-01-22T12:54:00.609Z,1.8
2023-01-22T12:55:01.190Z,1.8
2023-01-22T12:56:00.777Z,1.8
2023-01-22T12:57:01.523Z,1.7
2023-01-22T12:58:01.012Z,1.7
2023-01-22T12:59:00.614Z,1.7
2023-01-22T13:00:01.171Z,1.8
2023-01-22T13:01:00.824Z,1.8
2023-01-22T13:02:01.366Z,1.8
2023-01-22T13:03:00.997Z,1.8
2023-01-22T13:04:00.609Z,1.7
2023-01-22T13:05:01.160Z,1.7
2023-01-22T13:06:00.768Z,1.6
2023-01-22T13:07:01.343Z,1.7
2023-01-22T13:08:00.928Z,1.7
2023-01-22T13:09:01.545Z,1.7
2023-01-22T13:10:01.139Z,1.7
2023-01-22T13:11:00.731Z,1.7
2023-01-22T13:12:01.298Z,1.6
2023-01-22T13:13:00.999Z,1.7
2023-01-22T13:14:13.813Z,1.7
2023-01-22T13:15:01.030Z,1.7
2023-01-22T13:16:00.665Z,1.8
2023-01-22T13:17:01.206Z,1.8
2023-01-22T13:18:06.815Z,1.8
2023-01-22T13:19:01.369Z,1.7
2023-01-22T13:20:00.956Z,1.7
2023-01-22T13:21:01.545Z,1.7
2023-01-22T13:22:01.168Z,1.7
2023-01-22T13:23:00.774Z,1.8
2023-01-22T13:24:01.365Z,1.8
2023-01-22T13:25:00.976Z,1.8
2023-01-22T13:26:00.548Z,1.8
2023-01-22T13:27:01.151Z,1.7
2023-01-22T13:28:00.763Z,1.7
2023-01-22T13:29:01.501Z,1.7
2023-01-22T13:30:00.987Z,1.7
2023-01-22T13:31:00.581Z,1.6
2023-01-22T13:32:01.235Z,1.7
2023-01-22T13:33:00.792Z,1.7
2023-01-22T13:34:01.395Z,1.7
2023-01-22T13:35:00.985Z,1.7
2023-01-22T13:36:00.566Z,1.7
2023-01-22T13:37:01.136Z,1.7
2023-01-22T13:38:00.729Z,1.7
2023-01-22T13:39:01.338Z,1.7
2023-01-22T13:40:00.932Z,1.7
2023-01-22T13:41:00.611Z,1.8
2023-01-22T13:42:01.085Z,1.7
2023-01-22T13:43:00.684Z,1.8
2023-01-22T13:44:01.275Z,1.8
2023-01-22T13:45:01.019Z,1.7
2023-01-22T13:46:01.489Z,1.6
2023-01-22T13:47:01.134Z,1.7
2023-01-22T13:48:01.946Z,1.7
2023-01-22T13:49:01.279Z,1.7
2023-01-22T13:50:00.862Z,1.7